Hlavní strana
METAR-TAF:

METAR-TAF

Letiště :

Ashland, Kentucky, Spojené státy americké

zeměpisná šířka: 38-33-16N, zeměpisná délka: 082-44-17W, výška: 166 m

Aktuální stav počasí

Zpráva byla vytvořena před 31 minutami, v 22:56 UTC
Západojihozápadní vítr 8 kt
Teplota 14°C
Vlhkost vzduchu 51%
Tlak 1011 hPa
Viditelnost: 16.1 km
Zataženo ve výšce 10000 ft

METAR: KDWU 202256Z AUTO 25008KT 10SM OVC100 14/04 A2984 RMK AO2 SLP103 T01390044 PNO $

Čas: 19:27 (23:27 UTC)


TAF: chybějící

Stav a předpovědi počasí z více než 4 000 letišť (zprávy METAR a TAF).

Červené a žluté tečky na mapě představují dostupné meteorologické stanice.

Když kurzor umístíte na tečku, zobrazí se název stanice.

Pak kliknutím zobrazíte stav a předpověď počasí.

Chcete-li změnit mapu, kliknutím na zelené tlačítko se znaménkem +mapu přiblížíte, kliknutím na zelené tlačítko se znaménkem – mapu oddálíte a kliknutím na zelené šipky přejdete na sousední mapy.


METAR-TAF: